Terminal Aerodrome Forecast
Issued by NWS Shreveport, LA

Current Version | Previous Version | Text Only | Print | Product List | Glossary On
Versions: 1 2 3 4 5 6 7 8 9 10 11 12 13 14 15
983
FTUS44 KSHV 282324
TAFSHV
TAF
KSHV 282324Z 2900/2924 15006KT P6SM FEW045 FEW280
     FM290900 15006KT P6SM BKN015 OVC035
      TEMPO 2910/2912 BKN008 BKN015
     FM291200 15004KT 4SM BR OVC008
     FM291500 17008KT P6SM OVC015
     FM292000 18007KT P6SM VCTS BKN050CB=

USA.gov is the U.S. government's official web portal to all federal, state and local government web resources and services.